createdAt,value
2018-11-26T00:01:22.183Z,0.30
2018-11-26T00:03:53.933Z,0.30
2018-11-26T00:06:22.680Z,0.40
2018-11-26T00:08:50.499Z,0.40
2018-11-26T00:11:46.328Z,0.40
2018-11-26T00:14:18.791Z,0.40
2018-11-26T00:16:49.665Z,0.30
2018-11-26T00:19:20.155Z,0.30
2018-11-26T00:21:51.070Z,0.40
2018-11-26T00:24:21.431Z,0.40
2018-11-26T00:26:51.062Z,0.30
2018-11-26T00:29:19.818Z,0.40
2018-11-26T00:31:48.760Z,0.40
2018-11-26T00:34:22.178Z,0.40
2018-11-26T00:36:51.987Z,0.40
2018-11-26T00:39:23.889Z,0.30
2018-11-26T00:41:52.576Z,0.40
2018-11-26T00:44:21.594Z,0.30
2018-11-26T00:46:50.204Z,0.40
2018-11-26T00:49:19.015Z,0.30
2018-11-26T00:51:48.015Z,0.30
2018-11-26T00:54:17.840Z,0.30
2018-11-26T00:56:48.218Z,0.40
2018-11-26T00:59:18.187Z,0.40
2018-11-26T01:01:49.848Z,0.40
2018-11-26T01:04:21.285Z,0.40
2018-11-26T01:06:51.654Z,0.50
2018-11-26T01:09:21.305Z,0.40
2018-11-26T01:11:50.679Z,0.40
2018-11-26T01:14:24.890Z,0.50
2018-11-26T01:16:54.289Z,0.50
2018-11-26T01:19:24.290Z,0.50
2018-11-26T01:21:52.497Z,0.50
2018-11-26T01:24:22.969Z,0.50
2018-11-26T01:26:51.542Z,0.50
2018-11-26T01:29:19.699Z,0.50
2018-11-26T01:31:51.569Z,0.40
2018-11-26T01:34:25.159Z,0.50
2018-11-26T01:36:53.372Z,0.40
2018-11-26T01:39:21.550Z,0.50
2018-11-26T01:41:50.693Z,0.50
2018-11-26T01:44:21.043Z,0.50
2018-11-26T01:46:53.069Z,0.50
2018-11-26T01:49:24.541Z,0.50
2018-11-26T01:51:55.976Z,0.50
2018-11-26T01:54:28.897Z,0.60
2018-11-26T01:56:58.555Z,0.50
2018-11-26T01:59:27.471Z,0.60
2018-11-26T02:01:57.393Z,0.60
2018-11-26T02:04:28.190Z,0.60
2018-11-26T02:06:59.582Z,0.60
2018-11-26T02:09:28.740Z,0.50
2018-11-26T02:12:01.643Z,0.50
2018-11-26T02:14:29.168Z,0.50
2018-11-26T02:16:58.201Z,0.60
2018-11-26T02:19:26.726Z,0.60
2018-11-26T02:21:55.486Z,0.60
2018-11-26T02:24:27.158Z,0.60
2018-11-26T02:26:56.701Z,0.60
2018-11-26T02:29:25.443Z,0.50
2018-11-26T02:31:55.902Z,0.50
2018-11-26T02:34:24.682Z,0.60
2018-11-26T02:36:54.696Z,0.60
2018-11-26T02:39:24.631Z,0.60
2018-11-26T02:41:58.309Z,0.60
2018-11-26T02:44:28.815Z,0.60
2018-11-26T02:46:58.716Z,0.60
2018-11-26T02:49:27.597Z,0.60
2018-11-26T02:51:56.986Z,0.60
2018-11-26T02:54:25.715Z,0.60
2018-11-26T02:56:54.686Z,0.60
2018-11-26T02:59:23.467Z,0.60
2018-11-26T03:01:53.179Z,0.60
2018-11-26T03:04:21.634Z,0.60
2018-11-26T03:06:50.927Z,0.60
2018-11-26T03:09:19.534Z,0.70
2018-11-26T03:11:48.569Z,0.60
2018-11-26T03:14:19.478Z,0.60
2018-11-26T03:16:50.466Z,0.70
2018-11-26T03:19:19.937Z,0.60
2018-11-26T03:21:48.681Z,0.60
2018-11-26T03:24:17.370Z,0.70
2018-11-26T03:26:46.464Z,0.70
2018-11-26T03:29:19.334Z,0.80
2018-11-26T03:31:51.280Z,0.80
2018-11-26T03:34:21.253Z,0.80
2018-11-26T03:36:49.466Z,0.70
2018-11-26T03:39:18.691Z,0.70
2018-11-26T03:41:47.469Z,0.70
2018-11-26T03:44:17.437Z,0.70
2018-11-26T03:46:47.294Z,0.70
2018-11-26T03:49:16.388Z,0.70
2018-11-26T03:51:44.987Z,0.80
2018-11-26T03:54:13.216Z,0.90
2018-11-26T03:56:42.013Z,0.80
2018-11-26T03:59:10.944Z,0.70
2018-11-26T04:01:41.716Z,0.80
2018-11-26T04:04:11.861Z,0.80
2018-11-26T04:06:42.666Z,0.80
2018-11-26T04:09:14.160Z,0.90
2018-11-26T04:11:44.500Z,0.80
2018-11-26T04:14:15.967Z,0.80
2018-11-26T04:16:47.483Z,0.80
2018-11-26T04:19:16.180Z,0.80
2018-11-26T04:21:45.546Z,0.80
2018-11-26T04:24:16.333Z,0.80
2018-11-26T04:26:50.640Z,0.90
2018-11-26T04:29:21.970Z,1.00
2018-11-26T04:31:51.725Z,0.90
2018-11-26T04:34:21.623Z,0.90
2018-11-26T04:36:51.372Z,0.90
2018-11-26T04:39:20.400Z,0.90
2018-11-26T04:41:49.194Z,0.90
2018-11-26T04:44:20.915Z,0.90
2018-11-26T04:46:53.625Z,0.90
2018-11-26T04:49:23.584Z,1.00
2018-11-26T04:51:54.993Z,0.90
2018-11-26T04:54:25.341Z,0.90
2018-11-26T04:56:57.242Z,0.90
2018-11-26T04:59:25.395Z,0.90
2018-11-26T05:01:53.847Z,1.00
2018-11-26T05:04:23.693Z,1.00
2018-11-26T05:06:53.674Z,1.10
2018-11-26T05:09:23.171Z,1.10
2018-11-26T05:11:52.217Z,1.00
2018-11-26T05:14:23.600Z,1.10
2018-11-26T05:16:54.914Z,1.00
2018-11-26T05:19:26.115Z,1.00
2018-11-26T05:22:02.010Z,1.00
2018-11-26T05:24:29.856Z,1.00
2018-11-26T05:27:01.933Z,1.10
2018-11-26T05:29:30.966Z,1.00
2018-11-26T05:31:59.096Z,1.10
2018-11-26T05:34:28.705Z,1.10
2018-11-26T05:37:00.077Z,1.10
2018-11-26T05:39:30.059Z,1.20
2018-11-26T05:42:00.082Z,1.10
2018-11-26T05:44:29.147Z,1.20
2018-11-26T05:46:58.620Z,1.20
2018-11-26T05:49:30.267Z,1.20
2018-11-26T05:52:01.077Z,1.10
2018-11-26T05:54:32.470Z,1.20
2018-11-26T05:57:02.413Z,1.20
2018-11-26T05:59:31.777Z,1.20
2018-11-26T06:02:03.202Z,1.20
2018-11-26T06:04:33.153Z,1.20
2018-11-26T06:07:02.014Z,1.20
2018-11-26T06:09:29.903Z,1.20
2018-11-26T06:11:59.186Z,1.10
2018-11-26T06:14:28.209Z,1.20
2018-11-26T06:16:57.196Z,1.20
2018-11-26T06:19:28.710Z,1.10
2018-11-26T06:21:58.649Z,1.10
2018-11-26T06:24:27.937Z,1.10
2018-11-26T06:26:56.979Z,1.10
2018-11-26T06:29:26.469Z,1.10
2018-11-26T06:31:55.156Z,1.10
2018-11-26T06:34:23.008Z,1.10
2018-11-26T06:36:52.160Z,1.20
2018-11-26T06:39:20.880Z,1.20
2018-11-26T06:41:49.097Z,1.10
2018-11-26T06:44:17.242Z,1.20
2018-11-26T06:46:46.771Z,1.20
2018-11-26T06:49:17.264Z,1.20
2018-11-26T06:51:48.143Z,1.20
2018-11-26T06:54:17.575Z,1.20
2018-11-26T06:56:47.917Z,1.20
2018-11-26T06:59:19.633Z,1.30
2018-11-26T07:01:48.926Z,1.20
2018-11-26T07:04:20.513Z,1.10
2018-11-26T07:06:49.904Z,1.10
2018-11-26T07:09:21.316Z,1.10
2018-11-26T07:11:53.213Z,1.00
2018-11-26T07:14:23.056Z,0.90
2018-11-26T07:16:52.527Z,0.90
2018-11-26T07:19:21.034Z,0.90
2018-11-26T07:21:49.668Z,0.90
2018-11-26T07:24:18.178Z,0.80
2018-11-26T07:26:46.408Z,0.80
2018-11-26T07:29:15.133Z,0.70
2018-11-26T07:31:43.910Z,0.70
2018-11-26T07:34:12.609Z,0.70
2018-11-26T07:36:41.111Z,0.70
2018-11-26T07:39:10.748Z,0.60
2018-11-26T07:41:42.878Z,0.70
2018-11-26T07:44:11.580Z,0.60
2018-11-26T07:46:41.113Z,0.60
2018-11-26T07:49:10.361Z,0.50
2018-11-26T07:51:39.402Z,0.50
2018-11-26T07:54:07.640Z,0.50
2018-11-26T07:56:35.959Z,0.50
2018-11-26T07:59:04.015Z,0.50
2018-11-26T08:01:34.576Z,0.50
2018-11-26T08:04:05.004Z,0.50
2018-11-26T08:06:36.732Z,0.50
2018-11-26T08:09:06.526Z,0.60
2018-11-26T08:11:35.220Z,0.50
2018-11-26T08:14:06.085Z,0.40
2018-11-26T08:16:33.941Z,0.50
2018-11-26T08:19:03.149Z,0.50
2018-11-26T08:21:33.673Z,0.50
2018-11-26T08:24:04.378Z,0.50
2018-11-26T08:26:33.120Z,0.40
2018-11-26T08:29:04.434Z,0.40
2018-11-26T08:31:35.995Z,0.40
2018-11-26T08:34:05.635Z,0.40
2018-11-26T08:36:47.404Z,0.30
2018-11-26T08:39:18.709Z,0.30
2018-11-26T08:41:56.121Z,0.30
2018-11-26T08:44:41.518Z,0.30
2018-11-26T08:47:23.998Z,0.30
2018-11-26T08:49:53.582Z,0.40
2018-11-26T08:52:24.415Z,0.40
2018-11-26T08:54:55.922Z,0.40
2018-11-26T08:57:27.088Z,0.40
2018-11-26T08:59:56.925Z,0.50
2018-11-26T09:02:46.349Z,0.50
2018-11-26T09:05:36.649Z,0.50
2018-11-26T09:08:07.130Z,0.50
2018-11-26T09:10:41.893Z,0.50
2018-11-26T09:13:06.637Z,0.60
2018-11-26T09:15:34.090Z,0.60
2018-11-26T09:18:03.552Z,0.60
2018-11-26T09:20:34.334Z,0.70
2018-11-26T09:23:07.778Z,0.80
2018-11-26T09:25:37.742Z,0.90
2018-11-26T09:28:05.625Z,1.00
2018-11-26T09:30:34.244Z,1.10
2018-11-26T09:33:02.416Z,1.10
2018-11-26T09:35:31.348Z,1.00
2018-11-26T09:38:02.750Z,1.10
2018-11-26T09:40:31.866Z,1.00
2018-11-26T09:43:00.845Z,1.00
2018-11-26T09:45:28.973Z,1.10
2018-11-26T09:48:02.853Z,1.20
2018-11-26T09:50:34.763Z,1.20
2018-11-26T09:53:04.374Z,1.20
2018-11-26T09:55:34.152Z,1.30
2018-11-26T09:58:05.497Z,1.20
2018-11-26T10:00:35.494Z,1.30
2018-11-26T10:03:05.457Z,1.30
2018-11-26T10:05:35.292Z,1.30
2018-11-26T10:08:05.754Z,1.40
2018-11-26T10:10:34.520Z,1.50
2018-11-26T10:13:05.969Z,1.40
2018-11-26T10:15:35.891Z,1.40
2018-11-26T10:18:06.712Z,1.50
2018-11-26T10:20:35.752Z,1.50
2018-11-26T10:23:07.109Z,1.50
2018-11-26T10:25:36.481Z,1.40
2018-11-26T10:28:07.191Z,1.30
2018-11-26T10:30:40.661Z,1.30
2018-11-26T10:33:14.652Z,1.20
2018-11-26T10:35:40.439Z,1.20
2018-11-26T10:38:10.340Z,1.30
2018-11-26T10:40:40.894Z,1.30
2018-11-26T10:43:11.942Z,1.40
2018-11-26T10:45:41.454Z,1.50
2018-11-26T10:48:10.795Z,1.50
2018-11-26T10:50:42.214Z,1.50
2018-11-26T10:53:14.484Z,1.50
2018-11-26T10:55:44.928Z,1.40
2018-11-26T10:58:16.381Z,1.40
2018-11-26T11:01:22.641Z,1.40
2018-11-26T11:03:52.304Z,1.50
2018-11-26T11:06:22.141Z,1.50
2018-11-26T11:08:50.680Z,1.60
2018-11-26T11:11:23.413Z,1.70
2018-11-26T11:13:47.553Z,1.80
2018-11-26T11:16:16.335Z,1.80
2018-11-26T11:18:45.350Z,1.80
2018-11-26T11:21:15.255Z,1.90
2018-11-26T11:23:48.212Z,1.90
2018-11-26T11:26:18.646Z,2.00
2018-11-26T11:28:47.687Z,2.10
2018-11-26T11:31:16.498Z,2.10
2018-11-26T11:33:45.602Z,2.20
2018-11-26T11:36:14.287Z,2.20
2018-11-26T11:38:42.719Z,2.30
2018-11-26T11:41:10.767Z,2.50
2018-11-26T11:43:42.732Z,2.50
2018-11-26T11:46:12.569Z,2.50
2018-11-26T11:48:41.294Z,2.60
2018-11-26T11:51:09.444Z,2.60
2018-11-26T11:53:39.300Z,2.60
2018-11-26T11:56:08.272Z,2.70
2018-11-26T11:58:37.554Z,2.70
2018-11-26T12:01:10.730Z,2.70
2018-11-26T12:03:39.255Z,2.70
2018-11-26T12:06:08.195Z,2.70
2018-11-26T12:08:39.863Z,2.70
2018-11-26T12:11:09.285Z,2.60
2018-11-26T12:13:40.757Z,2.60
2018-11-26T12:16:12.293Z,2.60
2018-11-26T12:18:41.338Z,2.50
2018-11-26T12:21:10.477Z,2.60
2018-11-26T12:23:39.505Z,2.60
2018-11-26T12:26:08.464Z,2.50
2018-11-26T12:28:37.933Z,2.50
2018-11-26T12:31:08.027Z,2.50
2018-11-26T12:33:37.958Z,2.50
2018-11-26T12:36:09.274Z,2.50
2018-11-26T12:38:41.693Z,2.60
2018-11-26T12:41:12.065Z,2.60
2018-11-26T12:43:41.929Z,2.60
2018-11-26T12:46:14.335Z,2.60
2018-11-26T12:48:45.414Z,2.60
2018-11-26T12:51:15.813Z,2.60
2018-11-26T12:53:44.638Z,2.60
2018-11-26T12:56:16.110Z,2.50
2018-11-26T12:58:46.218Z,2.50
2018-11-26T13:01:19.719Z,2.50
2018-11-26T13:03:52.735Z,2.50
2018-11-26T13:06:21.052Z,2.50
2018-11-26T13:08:50.463Z,2.50
2018-11-26T13:11:21.257Z,2.50
2018-11-26T13:13:53.720Z,2.60
2018-11-26T13:16:24.674Z,2.60
2018-11-26T13:18:53.755Z,2.50
2018-11-26T13:21:22.510Z,2.50
2018-11-26T13:23:51.611Z,2.50
2018-11-26T13:26:20.212Z,2.50
2018-11-26T13:28:52.546Z,2.50
2018-11-26T13:31:22.938Z,2.50
2018-11-26T13:33:53.114Z,2.50
2018-11-26T13:36:23.585Z,2.50
2018-11-26T13:38:54.503Z,2.40
2018-11-26T13:41:23.247Z,2.40
2018-11-26T13:43:54.837Z,2.40
2018-11-26T13:46:24.505Z,2.40
2018-11-26T13:48:53.277Z,2.50
2018-11-26T13:51:22.005Z,2.50
2018-11-26T13:53:51.083Z,2.50
2018-11-26T13:56:19.973Z,2.50
2018-11-26T13:58:48.995Z,2.50
2018-11-26T14:01:19.113Z,2.50
2018-11-26T14:03:49.543Z,2.40
2018-11-26T14:06:19.974Z,2.60
2018-11-26T14:08:49.223Z,2.50
2018-11-26T14:11:17.322Z,2.60
2018-11-26T14:13:46.113Z,2.50
2018-11-26T14:16:16.331Z,2.50
2018-11-26T14:18:47.035Z,2.50
2018-11-26T14:21:21.137Z,2.50
2018-11-26T14:23:51.563Z,2.50
2018-11-26T14:26:21.230Z,2.40
2018-11-26T14:28:50.290Z,2.40
2018-11-26T14:31:18.982Z,2.40
2018-11-26T14:33:47.156Z,2.30
2018-11-26T14:36:19.067Z,2.30
2018-11-26T14:38:50.043Z,2.30
2018-11-26T14:41:20.486Z,2.30
2018-11-26T14:43:53.659Z,2.30
2018-11-26T14:46:22.436Z,2.40
2018-11-26T14:48:52.327Z,2.20
2018-11-26T14:51:24.300Z,2.20
2018-11-26T14:53:55.922Z,2.10
2018-11-26T14:56:28.199Z,2.10
2018-11-26T14:58:58.154Z,2.00
2018-11-26T15:01:26.003Z,2.00
2018-11-26T15:03:55.016Z,2.00
2018-11-26T15:06:23.749Z,2.10
2018-11-26T15:08:52.993Z,2.20
2018-11-26T15:11:21.211Z,2.20
2018-11-26T15:13:50.787Z,2.40
2018-11-26T15:16:19.022Z,2.40
2018-11-26T15:18:49.973Z,2.40
2018-11-26T15:21:17.069Z,2.40
2018-11-26T15:23:45.764Z,2.30
2018-11-26T15:26:13.984Z,2.20
2018-11-26T15:28:43.504Z,2.30
2018-11-26T15:31:14.419Z,2.40
2018-11-26T15:33:43.816Z,2.40
2018-11-26T15:36:18.171Z,2.40
2018-11-26T15:38:48.685Z,2.30
2018-11-26T15:41:18.234Z,2.40
2018-11-26T15:43:47.230Z,2.30
2018-11-26T15:46:18.226Z,2.30
2018-11-26T15:48:47.317Z,2.30
2018-11-26T15:51:16.198Z,2.40
2018-11-26T15:53:44.869Z,2.40
2018-11-26T15:56:14.495Z,2.40
2018-11-26T15:58:42.791Z,2.20
2018-11-26T16:01:10.902Z,2.20
2018-11-26T16:03:40.357Z,2.20
2018-11-26T16:06:12.604Z,2.20
2018-11-26T16:08:42.551Z,2.20
2018-11-26T16:11:12.174Z,2.20
2018-11-26T16:13:40.935Z,2.10
2018-11-26T16:16:09.694Z,2.20
2018-11-26T16:18:39.208Z,2.20
2018-11-26T16:21:07.676Z,2.20
2018-11-26T16:23:37.539Z,2.20
2018-11-26T16:27:32.104Z,2.10
2018-11-26T16:30:01.830Z,2.30
2018-11-26T16:32:31.592Z,2.20
2018-11-26T16:35:00.349Z,2.40
2018-11-26T16:37:30.956Z,2.70
2018-11-26T16:40:02.790Z,2.60
2018-11-26T16:42:31.910Z,2.60
2018-11-26T16:45:00.031Z,2.50
2018-11-26T16:47:29.037Z,2.40
2018-11-26T16:49:59.387Z,2.40
2018-11-26T16:52:29.247Z,2.30
2018-11-26T16:54:57.979Z,2.40
2018-11-26T16:57:26.157Z,2.50
2018-11-26T16:59:54.855Z,2.40
2018-11-26T17:02:23.937Z,2.20
2018-11-26T17:04:54.283Z,2.30
2018-11-26T17:07:25.723Z,2.30
2018-11-26T17:09:56.609Z,2.30
2018-11-26T17:12:31.035Z,2.40
2018-11-26T17:15:03.484Z,2.40
2018-11-26T17:17:34.954Z,2.30
2018-11-26T17:20:04.838Z,2.40
2018-11-26T17:22:34.691Z,2.40
2018-11-26T17:25:06.869Z,2.20
2018-11-26T17:27:37.706Z,2.30
2018-11-26T17:30:18.719Z,2.40
2018-11-26T17:32:49.094Z,2.30
2018-11-26T17:35:19.676Z,2.20
2018-11-26T17:37:48.615Z,2.10
2018-11-26T17:40:17.900Z,2.20
2018-11-26T17:42:46.941Z,2.20
2018-11-26T17:45:16.678Z,2.20
2018-11-26T17:47:52.699Z,2.20
2018-11-26T17:50:26.958Z,2.30
2018-11-26T17:52:56.609Z,2.30
2018-11-26T17:55:27.374Z,2.10
2018-11-26T17:57:55.818Z,2.20
2018-11-26T18:00:25.574Z,2.30
2018-11-26T18:02:54.598Z,2.20
2018-11-26T18:05:26.768Z,2.20
2018-11-26T18:07:57.532Z,2.10
2018-11-26T18:10:31.323Z,2.30
2018-11-26T18:13:01.211Z,2.20
2018-11-26T18:15:30.923Z,2.20
2018-11-26T18:17:59.864Z,2.30
2018-11-26T18:20:30.809Z,2.20
2018-11-26T18:23:01.371Z,2.10
2018-11-26T18:25:32.795Z,2.10
2018-11-26T18:28:04.093Z,2.10
2018-11-26T18:30:43.624Z,2.00
2018-11-26T18:33:11.727Z,1.90
2018-11-26T18:35:44.407Z,2.10
2018-11-26T18:38:15.976Z,2.10
2018-11-26T18:40:46.014Z,2.10
2018-11-26T18:43:15.627Z,2.00
2018-11-26T18:45:44.375Z,2.10
2018-11-26T18:48:13.704Z,2.10
2018-11-26T18:50:43.603Z,2.10
2018-11-26T18:53:18.043Z,2.10
2018-11-26T18:55:48.954Z,2.00
2018-11-26T18:58:19.495Z,2.10
2018-11-26T19:00:49.137Z,2.10
2018-11-26T19:03:22.438Z,2.20
2018-11-26T19:05:52.935Z,2.30
2018-11-26T19:08:23.075Z,2.10
2018-11-26T19:10:58.809Z,2.20
2018-11-26T19:13:33.824Z,2.20
2018-11-26T19:16:05.059Z,2.20
2018-11-26T19:18:35.180Z,2.00
2018-11-26T19:21:03.385Z,2.00
2018-11-26T19:23:37.370Z,1.90
2018-11-26T19:26:11.137Z,2.00
2018-11-26T19:28:41.610Z,2.00
2018-11-26T19:31:12.987Z,2.00
2018-11-26T19:33:42.876Z,2.00
2018-11-26T19:36:16.181Z,1.90
2018-11-26T19:38:47.681Z,1.90
2018-11-26T19:41:20.090Z,1.90
2018-11-26T19:43:49.541Z,1.90
2018-11-26T19:46:19.164Z,1.80
2018-11-26T19:48:47.592Z,1.80
2018-11-26T19:51:17.947Z,1.80
2018-11-26T19:53:47.834Z,1.80
2018-11-26T19:56:18.716Z,1.80
2018-11-26T19:58:47.582Z,1.70
2018-11-26T20:01:16.270Z,1.70
2018-11-26T20:03:46.403Z,1.60
2018-11-26T20:06:18.809Z,1.70
2018-11-26T20:08:51.249Z,1.70
2018-11-26T20:11:19.741Z,1.70
2018-11-26T20:13:48.503Z,1.70
2018-11-26T20:16:17.622Z,1.90
2018-11-26T20:18:48.027Z,1.80
2018-11-26T20:21:18.423Z,1.80
2018-11-26T20:23:47.504Z,1.70
2018-11-26T20:26:18.919Z,1.70
2018-11-26T20:28:48.295Z,1.60
2018-11-26T20:31:19.740Z,1.70
2018-11-26T20:33:50.147Z,1.70
2018-11-26T20:36:20.674Z,1.60
2018-11-26T20:38:49.050Z,1.70
2018-11-26T20:41:22.665Z,1.60
2018-11-26T20:43:52.614Z,1.60
2018-11-26T20:46:23.451Z,1.70
2018-11-26T20:48:52.870Z,1.60
2018-11-26T20:51:23.236Z,1.70
2018-11-26T20:53:55.998Z,1.60
2018-11-26T20:56:24.994Z,1.60
2018-11-26T20:58:53.266Z,1.60
2018-11-26T21:01:22.330Z,1.50
2018-11-26T21:03:51.894Z,1.50
2018-11-26T21:06:21.013Z,1.50
2018-11-26T21:08:50.057Z,1.50
2018-11-26T21:11:19.388Z,1.50
2018-11-26T21:13:50.846Z,1.60
2018-11-26T21:16:22.175Z,1.60
2018-11-26T21:18:52.101Z,1.70
2018-11-26T21:21:22.127Z,1.60
2018-11-26T21:23:49.563Z,1.50
2018-11-26T21:26:18.818Z,1.50
2018-11-26T21:28:48.735Z,1.50
2018-11-26T21:31:20.182Z,1.40
2018-11-26T21:33:50.299Z,1.40
2018-11-26T21:36:19.381Z,1.50
2018-11-26T21:38:49.884Z,1.50
2018-11-26T21:41:19.267Z,1.50
2018-11-26T21:43:51.101Z,1.50
2018-11-26T21:46:23.162Z,1.60
2018-11-26T21:48:51.280Z,1.60
2018-11-26T21:51:21.211Z,1.60
2018-11-26T21:53:52.136Z,1.60
2018-11-26T21:56:22.539Z,1.60
2018-11-26T21:58:51.959Z,1.60
2018-11-26T22:01:20.990Z,1.50
2018-11-26T22:03:51.515Z,1.70
2018-11-26T22:06:22.106Z,1.70
2018-11-26T22:08:52.939Z,1.60
2018-11-26T22:11:22.944Z,1.60
2018-11-26T22:13:51.360Z,1.60
2018-11-26T22:16:20.037Z,1.50
2018-11-26T22:18:51.134Z,1.40
2018-11-26T22:21:24.922Z,1.60
2018-11-26T22:23:57.507Z,1.60
2018-11-26T22:26:30.188Z,1.50
2018-11-26T22:29:00.142Z,1.50
2018-11-26T22:31:31.034Z,1.50
2018-11-26T22:34:00.970Z,1.50
2018-11-26T22:36:30.881Z,1.30
2018-11-26T22:39:02.372Z,1.30
2018-11-26T22:41:32.346Z,1.40
2018-11-26T22:44:02.780Z,1.30
2018-11-26T22:46:34.693Z,1.40
2018-11-26T22:49:03.209Z,1.50
2018-11-26T22:51:31.084Z,1.40
2018-11-26T22:53:59.247Z,1.40
2018-11-26T22:56:27.945Z,1.40
2018-11-26T22:58:57.556Z,1.40
2018-11-26T23:01:28.009Z,1.30
2018-11-26T23:03:58.433Z,1.30
2018-11-26T23:06:28.421Z,1.40
2018-11-26T23:08:58.314Z,1.40
2018-11-26T23:11:27.331Z,1.30
2018-11-26T23:13:56.110Z,1.30
2018-11-26T23:16:25.119Z,1.20
2018-11-26T23:18:54.149Z,1.00
2018-11-26T23:21:23.026Z,1.20
2018-11-26T23:23:51.150Z,1.10
2018-11-26T23:26:22.661Z,1.10
2018-11-26T23:28:52.313Z,1.10
2018-11-26T23:31:21.141Z,1.00
2018-11-26T23:33:49.841Z,1.00
2018-11-26T23:36:21.374Z,1.10
2018-11-26T23:38:52.314Z,1.30
2018-11-26T23:41:24.155Z,1.10
2018-11-26T23:43:55.580Z,1.00
2018-11-26T23:46:25.402Z,1.00
2018-11-26T23:48:56.313Z,1.00
2018-11-26T23:51:28.059Z,1.10
2018-11-26T23:53:59.583Z,1.10
2018-11-26T23:56:27.798Z,1.20
2018-11-26T23:58:56.347Z,1.20
